PWSweather.com
Personal Weather Stations
Station Observations
NBW76
Silver Creek, North Bend, WA 98065

Silver CreekNorth Bend, WA 98065

Lat: 47.4993612, Lon: -121.7783245

Elevation: 443

Station Type: Davisd VP2 + Solar + UV + Webcam

www.northbendweather.com

High Low Average
Temperature 43.5°F6.4°F 37.4°F3.0°F 39.9°F4.4°F
Dew Point 38.6°F3.7°F 35.4°F1.9°F 37.4°F3.0°F
Winds 11.5 mph SE18.5 mph SE Calm Calm 4.3 mph 6.9 mph
Wind Gusts 17.3 mph27.8 mph 1.2 mph1.9 mph 7.4 mph11.9 mph
Humidity 94% 79% 91%
Pressure 30.05 in1017.60 in 29.93 in1013.50 in -
Precipitation 0.34 in8.60 in - -
Hour Temp Dew Point Humidity Winds Wind Gusts Pressure Precip Precip Rate Daily Precip Total
12:00 AM 39.8°F4.3°C 38.2°F3.4°C 94% 2.3 mph ESE3.7 kmh ESE 4.6 mph7.4 kmh 29.94 in1013.9 mb - 0.02 in0.5 mm 0.02 in0.5 mm
12:10 AM 40.0°F4.4°C 38.4°F3.6°C 94% 1.2 mph ESE1.9 kmh ESE 5.8 mph9.3 kmh 29.94 in1013.9 mb - 0.01 in0.3 mm 0.01 in0.3 mm
12:20 AM 39.9°F4.4°C 38.3°F3.5°C 94% 2.3 mph ENE3.7 kmh ENE 3.5 mph5.6 kmh 29.94 in1013.9 mb - 0.02 in0.5 mm 0.03 in0.8 mm
12:30 AM 39.8°F4.3°C 38.2°F3.4°C 94% 1.2 mph E1.9 kmh E 5.8 mph9.3 kmh 29.94 in1013.9 mb - 0.01 in0.3 mm 0.04 in1.0 mm
12:40 AM 39.8°F4.3°C 38.2°F3.4°C 94% 1.2 mph SE1.9 kmh SE 3.5 mph5.6 kmh 29.95 in1014.2 mb - 0.01 in0.3 mm 0.05 in1.3 mm
12:50 AM 39.8°F4.3°C 38.2°F3.4°C 94% 3.5 mph E5.6 kmh E 3.5 mph5.6 kmh 29.95 in1014.2 mb - 0.01 in0.3 mm 0.06 in1.5 mm
01:00 AM 39.8°F4.3°C 38.2°F3.4°C 94% 1.2 mph ENE1.9 kmh ENE 3.5 mph5.6 kmh 29.95 in1014.2 mb - 0.00 in0.0 mm 0.06 in1.5 mm
01:10 AM 40.3°F4.6°C 38.4°F3.6°C 93% 2.3 mph E3.7 kmh E 5.8 mph9.3 kmh 29.95 in1014.2 mb - 0.00 in0.0 mm 0.06 in1.5 mm
01:20 AM 40.5°F4.7°C 38.6°F3.7°C 93% 3.5 mph ESE5.6 kmh ESE 5.8 mph9.3 kmh 29.95 in1014.2 mb - 0.01 in0.3 mm 0.07 in1.8 mm
01:30 AM 40.3°F4.6°C 38.4°F3.6°C 93% 3.5 mph ESE5.6 kmh ESE 5.8 mph9.3 kmh 29.96 in1014.6 mb - 0.00 in0.0 mm 0.07 in1.8 mm
01:40 AM 40.3°F4.6°C 38.2°F3.4°C 92% 2.3 mph ESE3.7 kmh ESE 3.5 mph5.6 kmh 29.95 in1014.2 mb - 0.00 in0.0 mm 0.07 in1.8 mm
01:50 AM 40.5°F4.7°C 38.4°F3.6°C 92% 1.2 mph S1.9 kmh S 3.5 mph5.6 kmh 29.95 in1014.2 mb - 0.00 in0.0 mm 0.07 in1.8 mm
02:00 AM 40.9°F4.9°C 38.5°F3.6°C 91% 1.2 mph E1.9 kmh E 2.3 mph3.7 kmh 29.95 in1014.2 mb - 0.00 in0.0 mm 0.07 in1.8 mm
02:10 AM 40.8°F4.9°C 38.4°F3.6°C 91% 6.9 mph SE11.1 kmh SE 10.4 mph16.7 kmh 29.96 in1014.6 mb - 0.00 in0.0 mm 0.07 in1.8 mm
02:20 AM 40.5°F4.7°C 38.1°F3.4°C 91% 1.2 mph ENE1.9 kmh ENE 3.5 mph5.6 kmh 29.96 in1014.6 mb - 0.00 in0.0 mm 0.07 in1.8 mm
02:30 AM 40.4°F4.7°C 38.0°F3.3°C 91% 1.2 mph ESE1.9 kmh ESE 3.5 mph5.6 kmh 29.97 in1014.9 mb - 0.00 in0.0 mm 0.07 in1.8 mm
02:40 AM 40.4°F4.7°C 38.0°F3.3°C 91% 1.2 mph ESE1.9 kmh ESE 3.5 mph5.6 kmh 29.97 in1014.9 mb - 0.00 in0.0 mm 0.07 in1.8 mm
02:50 AM 39.9°F4.4°C 37.7°F3.2°C 92% 1.2 mph ESE1.9 kmh ESE 2.3 mph3.7 kmh 29.97 in1014.9 mb - 0.00 in0.0 mm 0.07 in1.8 mm
03:00 AM 39.6°F4.2°C 37.5°F3.1°C 92% Calm Calm 3.5 mph5.6 kmh 29.97 in1014.9 mb - 0.00 in0.0 mm 0.07 in1.8 mm
03:10 AM 39.2°F4.0°C 37.3°F2.9°C 93% 3.5 mph SE5.6 kmh SE 6.9 mph11.1 kmh 29.97 in1014.9 mb - 0.00 in0.0 mm 0.07 in1.8 mm
03:20 AM 38.9°F3.8°C 37.0°F2.8°C 93% 1.2 mph E1.9 kmh E 3.5 mph5.6 kmh 29.97 in1014.9 mb - 0.00 in0.0 mm 0.07 in1.8 mm
03:30 AM 38.8°F3.8°C 36.9°F2.7°C 93% 4.6 mph SE7.4 kmh SE 5.8 mph9.3 kmh 29.98 in1015.2 mb - 0.01 in0.3 mm 0.08 in2.0 mm
03:40 AM 38.7°F3.7°C 36.9°F2.7°C 93% 3.5 mph NE5.6 kmh NE 3.5 mph5.6 kmh 29.98 in1015.2 mb - 0.03 in0.8 mm 0.11 in2.8 mm
03:50 AM 39.0°F3.9°C 37.1°F2.8°C 93% Calm Calm 1.2 mph1.9 kmh 29.98 in1015.2 mb - 0.03 in0.8 mm 0.13 in3.3 mm
04:00 AM 39.0°F3.9°C 37.1°F2.8°C 93% 1.2 mph SE1.9 kmh SE 2.3 mph3.7 kmh 29.99 in1015.6 mb - 0.02 in0.5 mm 0.15 in3.8 mm
04:10 AM 38.8°F3.8°C 36.9°F2.7°C 93% 1.2 mph NE1.9 kmh NE 6.9 mph11.1 kmh 29.99 in1015.6 mb - 0.02 in0.5 mm 0.16 in4.1 mm
04:20 AM 38.6°F3.7°C 36.8°F2.7°C 93% 1.2 mph N1.9 kmh N 3.5 mph5.6 kmh 29.99 in1015.6 mb - 0.00 in0.0 mm 0.16 in4.1 mm
04:30 AM 38.5°F3.6°C 36.4°F2.4°C 92% 2.3 mph ENE3.7 kmh ENE 4.6 mph7.4 kmh 29.99 in1015.6 mb - 0.00 in0.0 mm 0.16 in4.1 mm
04:40 AM 38.3°F3.5°C 36.2°F2.3°C 92% 1.2 mph ESE1.9 kmh ESE 3.5 mph5.6 kmh 30.00 in1015.9 mb - 0.00 in0.0 mm 0.16 in4.1 mm
04:50 AM 38.5°F3.6°C 36.3°F2.4°C 92% 1.2 mph NE1.9 kmh NE 2.3 mph3.7 kmh 30.00 in1015.9 mb - 0.00 in0.0 mm 0.16 in4.1 mm
05:00 AM 38.4°F3.6°C 36.3°F2.4°C 92% 1.2 mph E1.9 kmh E 2.3 mph3.7 kmh 30.00 in1015.9 mb - 0.00 in0.0 mm 0.16 in4.1 mm
05:10 AM 38.8°F3.8°C 36.7°F2.6°C 92% 5.8 mph ESE9.3 kmh ESE 5.8 mph9.3 kmh 30.01 in1016.3 mb - 0.01 in0.3 mm 0.17 in4.3 mm
05:20 AM 39.0°F3.9°C 36.6°F2.6°C 91% 2.3 mph ESE3.7 kmh ESE 5.8 mph9.3 kmh 30.01 in1016.3 mb - 0.01 in0.3 mm 0.18 in4.6 mm
05:30 AM 39.2°F4.0°C 36.2°F2.3°C 89% 2.3 mph ESE3.7 kmh ESE 5.8 mph9.3 kmh 30.02 in1016.6 mb - 0.00 in0.0 mm 0.18 in4.6 mm
05:40 AM 39.2°F4.0°C 36.2°F2.3°C 89% 3.5 mph ENE5.6 kmh ENE 3.5 mph5.6 kmh 30.02 in1016.6 mb - 0.00 in0.0 mm 0.18 in4.6 mm
05:50 AM 39.2°F4.0°C 36.2°F2.3°C 89% 3.5 mph ENE5.6 kmh ENE 6.9 mph11.1 kmh 30.02 in1016.6 mb - 0.00 in0.0 mm 0.18 in4.6 mm
06:00 AM 39.3°F4.1°C 36.3°F2.4°C 89% 2.3 mph SE3.7 kmh SE 4.6 mph7.4 kmh 30.02 in1016.6 mb - 0.00 in0.0 mm 0.18 in4.6 mm
06:10 AM 39.3°F4.1°C 36.3°F2.4°C 89% 2.3 mph SSE3.7 kmh SSE 2.3 mph3.7 kmh 30.02 in1016.6 mb - 0.00 in0.0 mm 0.18 in4.6 mm
06:20 AM 38.8°F3.8°C 36.1°F2.3°C 90% 3.5 mph E5.6 kmh E 5.8 mph9.3 kmh 30.02 in1016.6 mb - 0.00 in0.0 mm 0.18 in4.6 mm
06:30 AM 38.6°F3.7°C 35.9°F2.2°C 90% 3.5 mph E5.6 kmh E 10.4 mph16.7 kmh 30.02 in1016.6 mb - 0.00 in0.0 mm 0.18 in4.6 mm
06:40 AM 38.4°F3.6°C 36.0°F2.2°C 91% 2.3 mph NE3.7 kmh NE 5.8 mph9.3 kmh 30.02 in1016.6 mb - 0.00 in0.0 mm 0.18 in4.6 mm
06:50 AM 38.4°F3.6°C 36.0°F2.2°C 91% 3.5 mph E5.6 kmh E 6.9 mph11.1 kmh 30.02 in1016.6 mb - 0.00 in0.0 mm 0.18 in4.6 mm
07:00 AM 39.2°F4.0°C 36.5°F2.5°C 90% Calm Calm 3.5 mph5.6 kmh 30.02 in1016.6 mb - 0.00 in0.0 mm 0.18 in4.6 mm
07:10 AM 38.2°F3.4°C 35.8°F2.1°C 91% 5.8 mph E9.3 kmh E 8.1 mph13.0 kmh 30.02 in1016.6 mb - 0.00 in0.0 mm 0.18 in4.6 mm
07:20 AM 38.4°F3.6°C 36.0°F2.2°C 91% 2.3 mph ESE3.7 kmh ESE 4.6 mph7.4 kmh 30.02 in1016.6 mb - 0.00 in0.0 mm 0.18 in4.6 mm
07:30 AM 37.9°F3.3°C 35.8°F2.1°C 92% 5.8 mph ESE9.3 kmh ESE 9.2 mph14.8 kmh 30.02 in1016.6 mb - 0.01 in0.3 mm 0.19 in4.8 mm
07:40 AM 37.5°F3.1°C 35.4°F1.9°C 92% 3.5 mph ESE5.6 kmh ESE 10.4 mph16.7 kmh 30.02 in1016.6 mb - 0.01 in0.3 mm 0.20 in5.1 mm
07:50 AM 37.4°F3.0°C 35.6°F2.0°C 93% 4.6 mph ESE7.4 kmh ESE 5.8 mph9.3 kmh 30.02 in1016.6 mb - 0.00 in0.0 mm 0.20 in5.1 mm
08:00 AM 37.7°F3.2°C 35.8°F2.1°C 93% 3.5 mph E5.6 kmh E 6.9 mph11.1 kmh 30.02 in1016.6 mb - 0.00 in0.0 mm 0.20 in5.1 mm
08:10 AM 37.7°F3.2°C 35.9°F2.2°C 93% 2.3 mph ESE3.7 kmh ESE 3.5 mph5.6 kmh 30.03 in1016.9 mb - 0.01 in0.3 mm 0.21 in5.3 mm
08:20 AM 37.7°F3.2°C 35.9°F2.2°C 93% 3.5 mph SE5.6 kmh SE 3.5 mph5.6 kmh 30.03 in1016.9 mb - 0.00 in0.0 mm 0.21 in5.3 mm
08:30 AM 37.5°F3.1°C 35.7°F2.1°C 93% 1.2 mph ESE1.9 kmh ESE 4.6 mph7.4 kmh 30.03 in1016.9 mb - 0.00 in0.0 mm 0.21 in5.3 mm
08:40 AM 37.5°F3.1°C 35.7°F2.1°C 93% 2.3 mph SE3.7 kmh SE 3.5 mph5.6 kmh 30.04 in1017.3 mb - 0.01 in0.3 mm 0.22 in5.6 mm
08:50 AM 37.6°F3.1°C 35.8°F2.1°C 93% 5.8 mph E9.3 kmh E 9.2 mph14.8 kmh 30.04 in1017.3 mb - 0.00 in0.0 mm 0.22 in5.6 mm
09:00 AM 37.5°F3.1°C 35.7°F2.1°C 93% 4.6 mph ESE7.4 kmh ESE 11.5 mph18.5 kmh 30.04 in1017.3 mb - 0.00 in0.0 mm 0.22 in5.6 mm
09:10 AM 37.5°F3.1°C 35.7°F2.1°C 93% 3.5 mph ESE5.6 kmh ESE 3.5 mph5.6 kmh 30.04 in1017.3 mb - 0.00 in0.0 mm 0.22 in5.6 mm
09:20 AM 37.4°F3.0°C 35.6°F2.0°C 93% 3.5 mph SE5.6 kmh SE 4.6 mph7.4 kmh 30.04 in1017.3 mb - 0.00 in0.0 mm 0.22 in5.6 mm
09:30 AM 37.6°F3.1°C 36.0°F2.2°C 94% 1.2 mph SE1.9 kmh SE 1.2 mph1.9 kmh 30.04 in1017.3 mb - 0.00 in0.0 mm 0.22 in5.6 mm
09:40 AM 37.8°F3.2°C 36.2°F2.3°C 94% 4.6 mph SE7.4 kmh SE 11.5 mph18.5 kmh 30.05 in1017.6 mb - 0.01 in0.3 mm 0.23 in5.8 mm
09:50 AM 37.7°F3.2°C 36.1°F2.3°C 94% 3.5 mph SE5.6 kmh SE 4.6 mph7.4 kmh 30.05 in1017.6 mb - 0.00 in0.0 mm 0.23 in5.8 mm
10:00 AM 37.8°F3.2°C 36.2°F2.3°C 94% 1.2 mph ESE1.9 kmh ESE 5.8 mph9.3 kmh 30.05 in1017.6 mb - 0.00 in0.0 mm 0.23 in5.8 mm
10:10 AM 37.9°F3.3°C 36.3°F2.4°C 94% 6.9 mph ESE11.1 kmh ESE 11.5 mph18.5 kmh 30.05 in1017.6 mb - 0.00 in0.0 mm 0.23 in5.8 mm
10:20 AM 38.1°F3.4°C 36.5°F2.5°C 94% 4.6 mph E7.4 kmh E 11.5 mph18.5 kmh 30.05 in1017.6 mb - 0.01 in0.3 mm 0.24 in6.1 mm
10:30 AM 38.4°F3.6°C 36.8°F2.7°C 94% 5.8 mph E9.3 kmh E 10.4 mph16.7 kmh 30.05 in1017.6 mb - 0.00 in0.0 mm 0.24 in6.1 mm
10:40 AM 38.7°F3.7°C 36.9°F2.7°C 93% 3.5 mph E5.6 kmh E 9.2 mph14.8 kmh 30.05 in1017.6 mb - 0.00 in0.0 mm 0.24 in6.1 mm
10:50 AM 38.9°F3.8°C 37.0°F2.8°C 93% 4.6 mph ESE7.4 kmh ESE 11.5 mph18.5 kmh 30.05 in1017.6 mb - 0.00 in0.0 mm 0.24 in6.1 mm
11:00 AM 39.2°F4.0°C 37.6°F3.1°C 94% 2.3 mph ESE3.7 kmh ESE 4.6 mph7.4 kmh 30.05 in1017.6 mb - 0.00 in0.0 mm 0.24 in6.1 mm
11:10 AM 39.4°F4.1°C 37.5°F3.1°C 93% 3.5 mph SSE5.6 kmh SSE 4.6 mph7.4 kmh 30.05 in1017.6 mb - 0.00 in0.0 mm 0.24 in6.1 mm
11:20 AM 39.7°F4.3°C 38.1°F3.4°C 94% 3.5 mph SE5.6 kmh SE 6.9 mph11.1 kmh 30.05 in1017.6 mb - 0.00 in0.0 mm 0.24 in6.1 mm
11:30 AM 39.8°F4.3°C 37.9°F3.3°C 93% 3.5 mph SE5.6 kmh SE 6.9 mph11.1 kmh 30.05 in1017.6 mb - 0.00 in0.0 mm 0.24 in6.1 mm
11:40 AM 39.7°F4.3°C 37.8°F3.2°C 93% 2.3 mph E3.7 kmh E 4.6 mph7.4 kmh 30.05 in1017.6 mb - 0.00 in0.0 mm 0.24 in6.1 mm
11:50 AM 39.5°F4.2°C 37.4°F3.0°C 92% 3.5 mph SE5.6 kmh SE 4.6 mph7.4 kmh 30.05 in1017.6 mb - 0.00 in0.0 mm 0.24 in6.1 mm
12:00 PM 39.2°F4.0°C 37.1°F2.8°C 92% 3.5 mph E5.6 kmh E 13.8 mph22.2 kmh 30.05 in1017.6 mb - 0.00 in0.0 mm 0.24 in6.1 mm
12:10 PM 39.3°F4.1°C 37.2°F2.9°C 92% 4.6 mph ESE7.4 kmh ESE 10.4 mph16.7 kmh 30.05 in1017.6 mb - 0.00 in0.0 mm 0.24 in6.1 mm
12:20 PM 39.2°F4.0°C 37.3°F2.9°C 93% 4.6 mph ESE7.4 kmh ESE 6.9 mph11.1 kmh 30.05 in1017.6 mb - 0.00 in0.0 mm 0.24 in6.1 mm
12:30 PM 39.6°F4.2°C 37.7°F3.2°C 93% 4.6 mph SE7.4 kmh SE 6.9 mph11.1 kmh 30.04 in1017.3 mb - 0.01 in0.3 mm 0.25 in6.4 mm
12:40 PM 39.5°F4.2°C 37.6°F3.1°C 93% 8.1 mph SE13.0 kmh SE 12.7 mph20.4 kmh 30.04 in1017.3 mb - 0.01 in0.3 mm 0.25 in6.4 mm
12:50 PM 39.6°F4.2°C 37.8°F3.2°C 93% 5.8 mph SE9.3 kmh SE 6.9 mph11.1 kmh 30.04 in1017.3 mb - 0.00 in0.0 mm 0.25 in6.4 mm
01:00 PM 39.5°F4.2°C 37.7°F3.2°C 93% 6.9 mph ESE11.1 kmh ESE 11.5 mph18.5 kmh 30.03 in1016.9 mb - 0.01 in0.3 mm 0.26 in6.6 mm
01:10 PM 39.6°F4.2°C 37.7°F3.2°C 93% 5.8 mph ESE9.3 kmh ESE 8.1 mph13.0 kmh 30.03 in1016.9 mb - 0.00 in0.0 mm 0.26 in6.6 mm
01:20 PM 39.6°F4.2°C 37.7°F3.2°C 93% 4.6 mph ESE7.4 kmh ESE 5.8 mph9.3 kmh 30.03 in1016.9 mb - 0.00 in0.0 mm 0.26 in6.6 mm
01:30 PM 39.8°F4.3°C 37.9°F3.3°C 93% 4.6 mph SE7.4 kmh SE 6.9 mph11.1 kmh 30.02 in1016.6 mb - 0.00 in0.0 mm 0.26 in6.6 mm
01:40 PM 39.9°F4.4°C 38.0°F3.3°C 93% 6.9 mph SE11.1 kmh SE 10.4 mph16.7 kmh 30.02 in1016.6 mb - 0.00 in0.0 mm 0.26 in6.6 mm
01:50 PM 39.9°F4.4°C 38.1°F3.4°C 93% 4.6 mph ESE7.4 kmh ESE 10.4 mph16.7 kmh 30.02 in1016.6 mb - 0.00 in0.0 mm 0.26 in6.6 mm
02:00 PM 40.0°F4.4°C 38.1°F3.4°C 93% 5.8 mph SE9.3 kmh SE 5.8 mph9.3 kmh 30.02 in1016.6 mb - 0.00 in0.0 mm 0.26 in6.6 mm
02:10 PM 40.1°F4.5°C 38.2°F3.4°C 93% 4.6 mph ESE7.4 kmh ESE 5.8 mph9.3 kmh 30.03 in1016.9 mb - 0.00 in0.0 mm 0.26 in6.6 mm
02:20 PM 40.2°F4.6°C 38.3°F3.5°C 93% 2.3 mph ESE3.7 kmh ESE 3.5 mph5.6 kmh 30.03 in1016.9 mb - 0.01 in0.3 mm 0.27 in6.9 mm
02:30 PM 40.3°F4.6°C 38.4°F3.6°C 93% 4.6 mph SE7.4 kmh SE 6.9 mph11.1 kmh 30.02 in1016.6 mb - 0.00 in0.0 mm 0.27 in6.9 mm
02:40 PM 40.2°F4.6°C 38.3°F3.5°C 93% 1.2 mph S1.9 kmh S 3.5 mph5.6 kmh 30.02 in1016.6 mb - 0.00 in0.0 mm 0.27 in6.9 mm
02:50 PM 40.0°F4.4°C 38.2°F3.4°C 93% 3.5 mph SE5.6 kmh SE 5.8 mph9.3 kmh 30.02 in1016.6 mb - 0.00 in0.0 mm 0.27 in6.9 mm
03:00 PM 39.9°F4.4°C 38.0°F3.3°C 93% 4.6 mph SE7.4 kmh SE 9.2 mph14.8 kmh 30.02 in1016.6 mb - 0.00 in0.0 mm 0.27 in6.9 mm
03:10 PM 40.1°F4.5°C 38.2°F3.4°C 93% 3.5 mph SE5.6 kmh SE 5.8 mph9.3 kmh 30.02 in1016.6 mb - 0.00 in0.0 mm 0.27 in6.9 mm
03:20 PM 40.2°F4.6°C 38.3°F3.5°C 93% 3.5 mph SSE5.6 kmh SSE 3.5 mph5.6 kmh 30.02 in1016.6 mb - 0.00 in0.0 mm 0.27 in6.9 mm
03:30 PM 40.2°F4.6°C 38.3°F3.5°C 93% 2.3 mph SE3.7 kmh SE 3.5 mph5.6 kmh 30.03 in1016.9 mb - 0.00 in0.0 mm 0.27 in6.9 mm
03:40 PM 40.1°F4.5°C 38.2°F3.4°C 93% 3.5 mph ESE5.6 kmh ESE 6.9 mph11.1 kmh 30.02 in1016.6 mb - 0.00 in0.0 mm 0.27 in6.9 mm
03:50 PM 40.0°F4.4°C 38.1°F3.4°C 93% 4.6 mph ESE7.4 kmh ESE 9.2 mph14.8 kmh 30.02 in1016.6 mb - 0.00 in0.0 mm 0.27 in6.9 mm
04:00 PM 40.0°F4.4°C 37.9°F3.3°C 92% 4.6 mph SE7.4 kmh SE 9.2 mph14.8 kmh 30.02 in1016.6 mb - 0.00 in0.0 mm 0.27 in6.9 mm
04:10 PM 39.8°F4.3°C 37.9°F3.3°C 93% 5.8 mph SE9.3 kmh SE 9.2 mph14.8 kmh 30.02 in1016.6 mb - 0.00 in0.0 mm 0.27 in6.9 mm
04:20 PM 39.8°F4.3°C 37.9°F3.3°C 93% 3.5 mph SE5.6 kmh SE 5.8 mph9.3 kmh 30.02 in1016.6 mb - 0.00 in0.0 mm 0.27 in6.9 mm
04:30 PM 39.8°F4.3°C 37.9°F3.3°C 93% 3.5 mph SE5.6 kmh SE 6.9 mph11.1 kmh 30.01 in1016.3 mb - 0.00 in0.0 mm 0.27 in6.9 mm
04:40 PM 39.8°F4.3°C 38.0°F3.3°C 93% 3.5 mph SE5.6 kmh SE 6.9 mph11.1 kmh 30.01 in1016.3 mb - 0.00 in0.0 mm 0.27 in6.9 mm
04:50 PM 39.6°F4.2°C 37.7°F3.2°C 93% 3.5 mph ESE5.6 kmh ESE 4.6 mph7.4 kmh 30.01 in1016.3 mb - 0.00 in0.0 mm 0.27 in6.9 mm
05:00 PM 39.6°F4.2°C 37.7°F3.2°C 93% 4.6 mph ESE7.4 kmh ESE 9.2 mph14.8 kmh 30.00 in1015.9 mb - 0.00 in0.0 mm 0.27 in6.9 mm
05:10 PM 39.8°F4.3°C 37.9°F3.3°C 93% 5.8 mph SE9.3 kmh SE 8.1 mph13.0 kmh 30.01 in1016.3 mb - 0.00 in0.0 mm 0.27 in6.9 mm
05:20 PM 40.0°F4.4°C 37.9°F3.3°C 92% 4.6 mph SE7.4 kmh SE 6.9 mph11.1 kmh 30.01 in1016.3 mb - 0.00 in0.0 mm 0.27 in6.9 mm
05:30 PM 39.8°F4.3°C 37.7°F3.2°C 92% 3.5 mph ESE5.6 kmh ESE 5.8 mph9.3 kmh 30.01 in1016.3 mb - 0.01 in0.3 mm 0.28 in7.1 mm
05:40 PM 39.8°F4.3°C 37.7°F3.2°C 92% 6.9 mph E11.1 kmh E 12.7 mph20.4 kmh 30.01 in1016.3 mb - 0.00 in0.0 mm 0.28 in7.1 mm
05:50 PM 39.7°F4.3°C 37.8°F3.2°C 93% 4.6 mph SE7.4 kmh SE 6.9 mph11.1 kmh 30.02 in1016.6 mb - 0.00 in0.0 mm 0.28 in7.1 mm
06:00 PM 39.7°F4.3°C 37.8°F3.2°C 93% 4.6 mph ESE7.4 kmh ESE 6.9 mph11.1 kmh 30.01 in1016.3 mb - 0.01 in0.3 mm 0.29 in7.4 mm
06:10 PM 39.6°F4.2°C 37.7°F3.2°C 93% 4.6 mph SE7.4 kmh SE 4.6 mph7.4 kmh 30.00 in1015.9 mb - 0.00 in0.0 mm 0.29 in7.4 mm
06:30 PM 40.0°F4.4°C 38.1°F3.4°C 93% 6.9 mph SE11.1 kmh SE 11.5 mph18.5 kmh 29.99 in1015.6 mb - 0.00 in0.0 mm 0.29 in7.4 mm
06:40 PM 40.2°F4.6°C 38.1°F3.4°C 92% 5.8 mph ESE9.3 kmh ESE 11.5 mph18.5 kmh 30.00 in1015.9 mb - 0.00 in0.0 mm 0.29 in7.4 mm
06:50 PM 40.1°F4.5°C 38.0°F3.3°C 92% 5.8 mph ESE9.3 kmh ESE 6.9 mph11.1 kmh 29.99 in1015.6 mb - 0.00 in0.0 mm 0.29 in7.4 mm
07:00 PM 40.1°F4.5°C 38.0°F3.3°C 92% 4.6 mph SE7.4 kmh SE 5.8 mph9.3 kmh 29.99 in1015.6 mb - 0.00 in0.0 mm 0.29 in7.4 mm
07:10 PM 40.3°F4.6°C 37.9°F3.3°C 91% 5.8 mph SE9.3 kmh SE 9.2 mph14.8 kmh 29.98 in1015.2 mb - 0.00 in0.0 mm 0.29 in7.4 mm
07:20 PM 40.5°F4.7°C 38.1°F3.4°C 91% 4.6 mph SE7.4 kmh SE 6.9 mph11.1 kmh 29.98 in1015.2 mb - 0.00 in0.0 mm 0.29 in7.4 mm
07:30 PM 40.7°F4.8°C 38.0°F3.3°C 90% 4.6 mph SE7.4 kmh SE 6.9 mph11.1 kmh 29.98 in1015.2 mb - 0.00 in0.0 mm 0.29 in7.4 mm
07:40 PM 40.9°F4.9°C 37.9°F3.3°C 89% 6.9 mph SE11.1 kmh SE 9.2 mph14.8 kmh 29.98 in1015.2 mb - 0.00 in0.0 mm 0.29 in7.4 mm
07:50 PM 40.8°F4.9°C 37.8°F3.2°C 89% 4.6 mph SE7.4 kmh SE 11.5 mph18.5 kmh 29.98 in1015.2 mb - 0.00 in0.0 mm 0.29 in7.4 mm
08:00 PM 41.1°F5.1°C 37.8°F3.2°C 88% 6.9 mph SE11.1 kmh SE 10.4 mph16.7 kmh 29.98 in1015.2 mb - 0.00 in0.0 mm 0.29 in7.4 mm
08:10 PM 41.3°F5.2°C 38.0°F3.3°C 88% 5.8 mph SE9.3 kmh SE 11.5 mph18.5 kmh 29.98 in1015.2 mb - 0.00 in0.0 mm 0.29 in7.4 mm
08:20 PM 41.5°F5.3°C 37.9°F3.3°C 87% 3.5 mph ESE5.6 kmh ESE 8.1 mph13.0 kmh 29.97 in1014.9 mb - 0.00 in0.0 mm 0.29 in7.4 mm
08:30 PM 41.2°F5.1°C 37.6°F3.1°C 87% 8.1 mph ESE13.0 kmh ESE 12.7 mph20.4 kmh 29.96 in1014.6 mb - 0.00 in0.0 mm 0.29 in7.4 mm
08:40 PM 41.1°F5.1°C 37.8°F3.2°C 88% 6.9 mph SE11.1 kmh SE 10.4 mph16.7 kmh 29.96 in1014.6 mb - 0.00 in0.0 mm 0.29 in7.4 mm
08:50 PM 41.9°F5.5°C 38.0°F3.3°C 86% 8.1 mph SE13.0 kmh SE 10.4 mph16.7 kmh 29.96 in1014.6 mb - 0.00 in0.0 mm 0.29 in7.4 mm
09:00 PM 41.7°F5.4°C 37.8°F3.2°C 86% 8.1 mph SE13.0 kmh SE 15.0 mph24.1 kmh 29.95 in1014.2 mb - 0.00 in0.0 mm 0.29 in7.4 mm
09:10 PM 42.7°F5.9°C 38.2°F3.4°C 84% 10.4 mph ESE16.7 kmh ESE 12.7 mph20.4 kmh 29.95 in1014.2 mb - 0.00 in0.0 mm 0.29 in7.4 mm
09:20 PM 42.6°F5.9°C 38.1°F3.4°C 84% 8.1 mph SE13.0 kmh SE 11.5 mph18.5 kmh 29.94 in1013.9 mb - 0.00 in0.0 mm 0.29 in7.4 mm
09:30 PM 42.7°F5.9°C 38.2°F3.4°C 84% 11.5 mph SE18.5 kmh SE 11.5 mph18.5 kmh 29.94 in1013.9 mb - 0.00 in0.0 mm 0.29 in7.4 mm
09:40 PM 42.9°F6.1°C 38.1°F3.4°C 83% 6.9 mph ESE11.1 kmh ESE 10.4 mph16.7 kmh 29.94 in1013.9 mb - 0.00 in0.0 mm 0.29 in7.4 mm
09:50 PM 43.3°F6.3°C 38.2°F3.4°C 82% 10.4 mph SE16.7 kmh SE 17.3 mph27.8 kmh 29.94 in1013.9 mb - 0.00 in0.0 mm 0.29 in7.4 mm
10:00 PM 43.0°F6.1°C 37.9°F3.3°C 82% 9.2 mph ESE14.8 kmh ESE 12.7 mph20.4 kmh 29.94 in1013.9 mb - 0.00 in0.0 mm 0.29 in7.4 mm
10:10 PM 42.3°F5.7°C 37.8°F3.2°C 84% 5.8 mph ESE9.3 kmh ESE 6.9 mph11.1 kmh 29.94 in1013.9 mb - 0.00 in0.0 mm 0.29 in7.4 mm
10:20 PM 43.4°F6.3°C 38.3°F3.5°C 82% 8.1 mph ESE13.0 kmh ESE 10.4 mph16.7 kmh 29.94 in1013.9 mb - 0.00 in0.0 mm 0.29 in7.4 mm
10:30 PM 43.4°F6.3°C 37.9°F3.3°C 81% 5.8 mph ESE9.3 kmh ESE 11.5 mph18.5 kmh 29.94 in1013.9 mb - 0.00 in0.0 mm 0.29 in7.4 mm
10:40 PM 42.6°F5.9°C 37.8°F3.2°C 83% 6.9 mph ESE11.1 kmh ESE 10.4 mph16.7 kmh 29.94 in1013.9 mb - 0.00 in0.0 mm 0.29 in7.4 mm
10:50 PM 43.1°F6.2°C 37.7°F3.2°C 81% 9.2 mph SE14.8 kmh SE 16.1 mph25.9 kmh 29.94 in1013.9 mb - 0.00 in0.0 mm 0.29 in7.4 mm
11:00 PM 42.6°F5.9°C 37.5°F3.1°C 82% 10.4 mph ESE16.7 kmh ESE 16.1 mph25.9 kmh 29.94 in1013.9 mb - 0.00 in0.0 mm 0.29 in7.4 mm
11:10 PM 42.6°F5.9°C 37.8°F3.2°C 83% 6.9 mph SE11.1 kmh SE 11.5 mph18.5 kmh 29.94 in1013.9 mb - 0.00 in0.0 mm 0.29 in7.4 mm
11:20 PM 43.0°F6.1°C 37.6°F3.1°C 81% 8.1 mph ESE13.0 kmh ESE 9.2 mph14.8 kmh 29.94 in1013.9 mb - 0.00 in0.0 mm 0.29 in7.4 mm
11:30 PM 43.5°F6.4°C 37.4°F3.0°C 79% 9.2 mph SE14.8 kmh SE 15.0 mph24.1 kmh 29.94 in1013.9 mb - 0.00 in0.0 mm 0.29 in7.4 mm
11:40 PM 43.4°F6.3°C 37.6°F3.1°C 80% 9.2 mph SE14.8 kmh SE 17.3 mph27.8 kmh 29.94 in1013.9 mb - 0.00 in0.0 mm 0.29 in7.4 mm
11:50 PM 43.1°F6.2°C 37.3°F2.9°C 80% 9.2 mph E14.8 kmh E 17.3 mph27.8 kmh 29.93 in1013.5 mb - 0.00 in0.0 mm 0.29 in7.4 mm